CD20 weather

Sprague Airport
Loveland, Colorado, United States

Public forecast

Using degrees Fahrenheit for public forecast. Weather courtesy of forecast.io.

Closest aviation weather report (METAR) to Sprague Airport

Closest report is Northern Colorado Regional Airport, 9.6 nm (17.9 km) E. Retrieved 2019/10/17 16:56 UTC (46 minutes ago):

KFNL 171656Z AUTO 32003KT 10SM CLR 15/M03 A2985 RMK AO2 SLP074 T01501028

Closest aviation forecast (TAF) to Sprague Airport

Closest forecast is Rocky Mountain Metropolitan Airport, 34.3 nm (63.6 km) S. Retrieved 2019/10/17 12:30 UTC (5 hours ago):

TAF KBJC 171127Z 1712/1812 VRB05KT P6SM BKN220 FM171700 07009KT P6SM BKN220 FM172200 04010KT P6SM BKN220 FM180100 33008KT P6SM SCT220 FM180500 26010KT P6SM FEW150 SCT220